Time;durP1;ratioP1;P1;durP2;ratioP2;P2;SDS_P1;SDS_P2;PMS_P1;PMS_P2;Temp;Humidity;BMP_temperature;BMP_pressure;BME280_temperature;BME280_humidity;BME280_pressure;Samples;Min_cycle;Max_cycle;Signal;HPM_P1;HPM_P2
2023/01/20 00:00:16;;;;;;;0.82;0.82;;;;;;;-1.61;91.19;96177.84;29373;197;63010;-62
2023/01/20 00:00:47;;;;;;;0.70;0.70;;;;;;;-1.60;91.61;96173.31;29373;218;63012;-62
2023/01/20 00:01:19;;;;;;;0.70;0.70;;;;;;;-1.58;91.67;96177.38;29371;239;64009;-61
2023/01/20 00:01:51;;;;;;;0.60;0.60;;;;;;;-1.57;91.52;96178.19;29373;214;63009;-61
2023/01/20 00:02:25;;;;;;;0.70;0.70;;;;;;;-1.56;91.33;96172.63;29373;203;63004;-61
2023/01/20 00:02:57;;;;;;;0.70;0.70;;;;;;;-1.54;91.54;96180.38;29373;237;63017;-61
2023/01/20 00:03:28;;;;;;;0.70;0.70;;;;;;;-1.54;91.41;96173.19;29373;197;63004;-60
2023/01/20 00:04:05;;;;;;;0.70;0.70;;;;;;;-1.52;91.17;96176.44;29373;218;63009;-61
2023/01/20 00:04:37;;;;;;;0.60;0.60;;;;;;;-1.50;91.37;96178.88;29373;267;63004;-60
2023/01/20 00:05:08;;;;;;;0.70;0.70;;;;;;;-1.49;90.98;96173.31;29373;236;63009;-61
2023/01/20 00:05:49;;;;;;;0.65;0.65;;;;;;;-1.47;91.25;96181.06;29373;243;63008;-62
2023/01/20 00:06:22;;;;;;;3.90;3.70;;;;;;;-1.46;90.89;96180.84;29393;254;64014;-61
2023/01/20 00:06:53;;;;;;;0.70;0.70;;;;;;;-1.45;90.72;96177.13;29395;202;63005;-61
2023/01/20 00:07:26;;;;;;;0.70;0.70;;;;;;;-1.44;90.44;96181.41;29373;223;63017;-62
2023/01/20 00:07:57;;;;;;;0.60;0.60;;;;;;;-1.43;90.72;96183.03;29373;223;63005;-62
2023/01/20 00:08:29;;;;;;;0.70;0.70;;;;;;;-1.44;90.63;96178.75;29373;226;63022;-61
2023/01/20 00:09:02;;;;;;;0.70;0.70;;;;;;;-1.43;90.60;96180.38;29373;238;63008;-61
2023/01/20 00:09:34;;;;;;;0.65;0.65;;;;;;;-1.42;90.41;96181.19;29373;287;63009;-62
2023/01/20 00:10:06;;;;;;;0.70;0.70;;;;;;;-1.41;90.64;96177.47;29372;204;63004;-62
2023/01/20 00:10:41;;;;;;;0.70;0.70;;;;;;;-1.41;90.40;96182.78;29373;198;63009;-61
2023/01/20 00:11:12;;;;;;;0.70;0.70;;;;;;;-1.40;90.53;96187.06;29373;218;63004;-61
2023/01/20 00:11:44;;;;;;;0.70;0.70;;;;;;;-1.40;90.51;96184.41;29371;258;64013;-62
2023/01/20 00:12:19;;;;;;;0.70;0.70;;;;;;;-1.40;90.60;96182.56;29373;203;63012;-61
2023/01/20 00:12:50;;;;;;;0.70;0.70;;;;;;;-1.40;90.30;96179.91;29373;208;63009;-62
2023/01/20 00:13:21;;;;;;;0.60;0.60;;;;;;;-1.40;90.18;96179.91;29373;208;63005;-62
2023/01/20 00:13:54;;;;;;;0.65;0.65;;;;;;;-1.40;90.20;96179.91;29373;227;63009;-61
2023/01/20 00:14:27;;;;;;;0.90;0.90;;;;;;;-1.41;90.03;96185.44;29373;211;63005;-62
2023/01/20 00:14:58;;;;;;;0.70;0.70;;;;;;;-1.46;90.19;96191.47;29373;235;63009;-62
2023/01/20 00:15:30;;;;;;;0.60;0.60;;;;;;;-1.47;90.22;96189.84;29373;211;63010;-62
2023/01/20 00:16:06;;;;;;;0.68;0.68;;;;;;;-1.48;90.43;96193.56;29373;210;63009;-61
2023/01/20 00:16:37;;;;;;;1.00;1.00;;;;;;;-1.50;90.44;96192.97;29373;235;63005;-60
2023/01/20 00:17:08;;;;;;;0.60;0.60;;;;;;;-1.51;90.47;96187.88;29371;214;64013;-61
2023/01/20 00:17:39;;;;;;;0.60;0.60;;;;;;;-1.52;90.69;96187.09;29373;231;63004;-62
2023/01/20 00:18:10;;;;;;;0.60;0.60;;;;;;;-1.53;91.01;96189.97;29372;258;64013;-61
2023/01/20 00:18:42;;;;;;;0.60;0.60;;;;;;;-1.54;90.96;96194.50;29373;206;63004;-61
2023/01/20 00:19:14;;;;;;;0.60;0.60;;;;;;;-1.54;90.83;96194.50;29372;218;63009;-61
2023/01/20 00:19:45;;;;;;;0.68;0.68;;;;;;;-1.54;91.23;96189.16;29373;208;63004;-62
2023/01/20 00:20:19;;;;;;;0.60;0.60;;;;;;;-1.53;91.28;96188.13;29373;215;63009;-61
2023/01/20 00:20:50;;;;;;;0.70;0.70;;;;;;;-1.52;91.50;96192.41;29373;200;63005;-62
2023/01/20 00:21:22;;;;;;;0.70;0.70;;;;;;;-1.52;91.42;96192.41;29373;199;63009;-61
2023/01/20 00:21:53;;;;;;;0.60;0.60;;;;;;;-1.51;91.39;96190.56;29373;210;63005;-61
2023/01/20 00:22:25;;;;;;;0.70;0.70;;;;;;;-1.51;91.60;96196.69;29373;319;63009;-60
2023/01/20 00:22:56;;;;;;;0.68;0.68;;;;;;;-1.50;91.41;96195.63;29373;244;63008;-61
2023/01/20 00:23:27;;;;;;;0.60;0.60;;;;;;;-1.49;91.36;96194.59;29371;222;64013;-61
2023/01/20 00:23:59;;;;;;;0.70;0.70;;;;;;;-1.49;91.63;96191.94;29373;206;63005;-61
2023/01/20 00:24:31;;;;;;;0.65;0.65;;;;;;;-1.46;91.35;96196.78;29373;221;63009;-61
2023/01/20 00:25:04;;;;;;;0.70;0.70;;;;;;;-1.47;91.34;96199.69;29373;296;63004;-61
2023/01/20 00:25:36;;;;;;;0.70;0.70;;;;;;;-1.46;91.61;96196.78;29373;203;63020;-61
2023/01/20 00:26:13;;;;;;;1.50;1.50;;;;;;;-1.45;91.46;96198.41;29373;235;63004;-62
2023/01/20 00:26:45;;;;;;;0.70;0.70;;;;;;;-1.45;91.56;96198.41;29373;217;63009;-60
2023/01/20 00:27:16;;;;;;;0.70;0.70;;;;;;;-1.43;91.18;96201.66;29373;301;63004;-61
2023/01/20 00:27:47;;;;;;;0.60;0.60;;;;;;;-1.41;91.29;96199.56;29373;301;63009;-61
2023/01/20 00:28:20;;;;;;;0.70;0.70;;;;;;;-1.40;91.53;96201.19;29373;234;63005;-61
2023/01/20 00:28:56;;;;;;;0.70;0.70;;;;;;;-1.39;91.07;96205.44;29371;204;64014;-62
2023/01/20 00:29:28;;;;;;;0.70;0.70;;;;;;;-1.38;91.29;96201.72;29373;218;63005;-62
2023/01/20 00:29:59;;;;;;;0.68;0.68;;;;;;;-1.37;91.20;96200.69;29371;257;64005;-61
2023/01/20 00:30:30;;;;;;;0.70;0.70;;;;;;;-1.35;90.96;96211.09;29373;206;63005;-60
2023/01/20 00:31:16;;;;;;;0.60;0.60;;;;;;;-1.35;90.76;96206.59;29373;234;63009;-62
2023/01/20 00:31:47;;;;;;;0.62;0.62;;;;;;;-1.34;90.65;96204.75;29373;251;63014;-61
2023/01/20 00:32:19;;;;;;;0.60;0.60;;;;;;;-1.32;90.41;96207.16;29372;278;64009;-61
2023/01/20 00:32:51;;;;;;;0.60;0.60;;;;;;;-1.32;90.51;96207.16;29373;219;63010;-61
2023/01/20 00:33:22;;;;;;;0.60;0.60;;;;;;;-1.31;90.22;96203.47;29373;223;63009;-61
2023/01/20 00:33:56;;;;;;;0.60;0.60;;;;;;;-1.31;90.26;96206.94;29373;259;63000;-62
2023/01/20 00:34:28;;;;;;;0.70;0.70;;;;;;;-1.30;90.22;96205.09;29373;230;63009;-61
2023/01/20 00:34:59;;;;;;;0.60;0.60;;;;;;;-1.31;89.79;96208.78;29371;213;64008;-61
2023/01/20 00:35:30;;;;;;;0.60;0.60;;;;;;;-1.29;89.97;96209.34;29373;214;63009;-61
2023/01/20 00:36:01;;;;;;;0.70;0.70;;;;;;;-1.29;89.78;96204.03;29373;251;63005;-61
2023/01/20 00:36:32;;;;;;;0.60;0.60;;;;;;;-1.27;89.72;96209.94;29373;264;63009;-60
2023/01/20 00:37:05;;;;;;;0.70;0.70;;;;;;;-1.28;89.92;96209.12;29373;230;63005;-61
2023/01/20 00:37:36;;;;;;;0.70;0.70;;;;;;;-1.27;89.70;96209.94;29373;219;63009;-61
2023/01/20 00:38:08;;;;;;;1.70;1.70;;;;;;;-1.27;89.55;96205.44;29373;216;63009;-61
2023/01/20 00:38:39;;;;;;;0.60;0.60;;;;;;;-1.26;89.46;96208.91;29373;225;63009;-61
2023/01/20 00:39:12;;;;;;;0.70;0.70;;;;;;;-1.25;89.38;96218.50;29373;276;63005;-61
2023/01/20 00:39:43;;;;;;;0.60;0.60;;;;;;;-1.25;89.23;96207.84;29371;222;64013;-60
2023/01/20 00:40:15;;;;;;;0.70;0.70;;;;;;;-1.25;89.33;96210.50;29373;197;63004;-61
2023/01/20 00:40:53;;;;;;;0.70;0.70;;;;;;;-1.24;89.10;96214.78;29373;260;63016;-61
2023/01/20 00:41:25;;;;;;;0.70;0.70;;;;;;;-1.25;89.13;96213.19;29373;237;63004;-61
2023/01/20 00:41:56;;;;;;;0.70;0.70;;;;;;;-1.25;88.93;96215.84;29372;231;63009;-60
2023/01/20 00:42:27;;;;;;;0.70;0.70;;;;;;;-1.26;89.08;96211.56;29373;218;63009;-61
2023/01/20 00:42:58;;;;;;;0.70;0.70;;;;;;;-1.28;89.06;96211.78;29373;240;63009;-62
2023/01/20 00:43:30;;;;;;;0.70;0.70;;;;;;;-1.27;89.49;96210.75;29373;274;63005;-62
2023/01/20 00:44:01;;;;;;;0.70;0.70;;;;;;;-1.27;89.52;96212.59;29373;209;63009;-61
2023/01/20 00:44:32;;;;;;;0.70;0.70;;;;;;;-1.28;89.75;96217.12;29373;208;63015;-62
2023/01/20 00:45:04;;;;;;;1.67;1.67;;;;;;;-1.28;89.57;96214.44;29371;220;64013;-60
2023/01/20 00:45:39;;;;;;;0.60;0.60;;;;;;;-1.29;89.66;96220.00;29371;202;64009;-61
2023/01/20 00:46:11;;;;;;;0.60;0.60;;;;;;;-1.29;89.60;96212.03;29373;238;63022;-61
2023/01/20 00:46:42;;;;;;;0.65;0.65;;;;;;;-1.30;90.03;96221.06;29373;208;63005;-60
2023/01/20 00:47:14;;;;;;;0.70;0.70;;;;;;;-1.32;90.20;96215.16;29373;208;63023;-60
2023/01/20 00:47:45;;;;;;;0.60;0.60;;;;;;;-1.31;90.23;96219.44;29373;212;63004;-60
2023/01/20 00:48:16;;;;;;;0.60;0.60;;;;;;;-1.31;89.82;96214.09;29373;263;63009;-61
2023/01/20 00:48:48;;;;;;;0.70;0.70;;;;;;;-1.31;89.88;96224.75;29373;218;63004;-61
2023/01/20 00:49:19;;;;;;;0.70;0.70;;;;;;;-1.31;90.14;96222.09;29373;223;63009;-60
2023/01/20 00:49:50;;;;;;;1.48;1.40;;;;;;;-1.33;89.83;96216.19;29373;281;63004;-62
2023/01/20 00:50:22;;;;;;;0.70;0.70;;;;;;;-1.37;89.73;96215.84;29371;198;64013;-61
2023/01/20 00:50:53;;;;;;;0.60;0.60;;;;;;;-1.39;89.86;96221.41;29373;206;63005;-61
2023/01/20 00:51:24;;;;;;;0.70;0.70;;;;;;;-1.40;89.54;96222.47;29373;332;63009;-60
2023/01/20 00:51:55;;;;;;;0.60;0.60;;;;;;;-1.40;89.65;96227.78;29373;225;63005;-60
2023/01/20 00:52:27;;;;;;;0.70;0.70;;;;;;;-1.41;89.62;96220.84;29373;251;63009;-61
2023/01/20 00:52:58;;;;;;;0.80;0.80;;;;;;;-1.41;90.04;96220.84;29373;208;63005;-60
2023/01/20 00:53:30;;;;;;;0.60;0.60;;;;;;;-1.40;89.87;96222.47;29373;319;63009;-62
2023/01/20 00:54:01;;;;;;;0.70;0.70;;;;;;;-1.39;90.00;96215.31;29373;199;63017;-61
2023/01/20 00:54:32;;;;;;;0.60;0.60;;;;;;;-1.40;90.03;96217.16;29373;199;63009;-61
2023/01/20 00:55:04;;;;;;;0.60;0.60;;;;;;;-1.39;90.18;96228.59;29373;222;63004;-61
2023/01/20 00:55:36;;;;;;;0.60;0.60;;;;;;;-1.39;90.44;96221.41;29371;198;64013;-61
2023/01/20 00:56:07;;;;;;;0.70;0.70;;;;;;;-1.39;90.23;96217.97;29373;224;63004;-61
2023/01/20 00:56:38;;;;;;;1.05;1.05;;;;;;;-1.40;90.37;96217.16;29373;205;63008;-62
2023/01/20 00:57:10;;;;;;;0.70;0.70;;;;;;;-1.41;90.42;96223.53;29373;305;63004;-61
2023/01/20 00:57:41;;;;;;;0.70;0.70;;;;;;;-1.41;90.72;96226.19;29373;267;63008;-60
2023/01/20 00:58:13;;;;;;;0.60;0.60;;;;;;;-1.42;90.64;96227.22;29373;322;63005;-60
2023/01/20 00:58:44;;;;;;;0.70;0.70;;;;;;;-1.42;90.90;96223.75;29373;243;63009;-61
2023/01/20 00:59:15;;;;;;;0.70;0.70;;;;;;;-1.43;91.13;96222.94;29373;236;63005;-61
2023/01/20 00:59:46;;;;;;;0.70;0.70;;;;;;;-1.44;91.33;96223.97;29373;277;63009;-61
2023/01/20 01:00:18;;;;;;;0.80;0.80;;;;;;;-1.45;91.84;96230.34;29373;212;63007;-62
2023/01/20 01:00:53;;;;;;;0.70;0.70;;;;;;;-1.44;91.89;96229.31;29371;225;64013;-60
2023/01/20 01:01:25;;;;;;;1.25;1.25;;;;;;;-1.45;91.66;96233.00;29373;344;63004;-61
2023/01/20 01:01:56;;;;;;;0.65;0.65;;;;;;;-1.45;91.53;96235.66;29371;253;64013;-60
2023/01/20 01:02:27;;;;;;;0.60;0.60;;;;;;;-1.46;91.36;96231.38;29373;199;63004;-60
2023/01/20 01:02:59;;;;;;;0.70;0.70;;;;;;;-1.45;91.39;96238.31;29373;229;63009;-61
2023/01/20 01:03:30;;;;;;;0.60;0.60;;;;;;;-1.46;91.27;96233.25;29371;206;64009;-61
2023/01/20 01:04:02;;;;;;;0.60;0.60;;;;;;;-1.47;91.24;96235.09;29373;249;63008;-62
2023/01/20 01:04:33;;;;;;;0.70;0.70;;;;;;;-1.47;91.43;96235.09;29372;288;64004;-61
2023/01/20 01:05:05;;;;;;;0.70;0.70;;;;;;;-1.48;91.11;96233.47;29373;202;63009;-62
2023/01/20 01:05:36;;;;;;;0.98;0.98;;;;;;;-1.47;91.32;96243.06;29373;206;63005;-62
2023/01/20 01:06:13;;;;;;;0.70;0.70;;;;;;;-1.47;91.04;96232.44;29373;202;63009;-61
2023/01/20 01:06:46;;;;;;;0.70;0.70;;;;;;;-1.48;90.83;96236.13;29373;230;63010;-61
2023/01/20 01:07:18;;;;;;;2.35;2.25;;;;;;;-1.49;91.11;96239.84;29373;203;63017;-61
2023/01/20 01:07:50;;;;;;;0.70;0.70;;;;;;;-1.48;91.41;96240.62;29373;193;63012;-61
2023/01/20 01:08:21;;;;;;;0.70;0.70;;;;;;;-1.48;91.41;96233.47;29373;210;63009;-61
2023/01/20 01:08:52;;;;;;;0.60;0.60;;;;;;;-1.48;91.84;96230.81;29371;239;64009;-61
2023/01/20 01:09:23;;;;;;;0.70;0.70;;;;;;;-1.49;91.65;96239.03;29373;202;63009;-61
2023/01/20 01:09:55;;;;;;;0.70;0.70;;;;;;;-1.50;92.01;96243.53;29373;231;63004;-61
2023/01/20 01:10:26;;;;;;;0.70;0.70;;;;;;;-1.51;91.76;96236.59;29373;212;63009;-60
2023/01/20 01:10:58;;;;;;;0.70;0.70;;;;;;;-1.50;91.81;96243.53;29373;197;63004;-61
2023/01/20 01:11:29;;;;;;;1.35;1.35;;;;;;;-1.51;91.99;96247.22;29373;246;63008;-61
2023/01/20 01:12:01;;;;;;;0.70;0.70;;;;;;;-1.51;92.06;96238.44;29373;202;63004;-61
2023/01/20 01:12:32;;;;;;;0.70;0.70;;;;;;;-1.53;91.73;96244.00;29373;202;63009;-62
2023/01/20 01:13:04;;;;;;;0.70;0.70;;;;;;;-1.54;91.96;96242.38;29373;266;63005;-60
2023/01/20 01:13:37;;;;;;;0.70;0.70;;;;;;;-1.54;91.98;96245.03;29373;278;63009;-62
2023/01/20 01:14:09;;;;;;;0.60;0.60;;;;;;;-1.56;92.03;96244.47;29371;209;64009;-60
2023/01/20 01:14:40;;;;;;;1.80;1.80;;;;;;;-1.56;91.72;96244.47;29373;260;63018;-61
2023/01/20 01:15:11;;;;;;;0.70;0.70;;;;;;;-1.56;91.47;96244.47;29373;221;63005;-61
2023/01/20 01:15:48;;;;;;;0.70;0.70;;;;;;;-1.57;91.17;96250.81;29373;216;63025;-61
2023/01/20 01:16:19;;;;;;;0.70;0.70;;;;;;;-1.59;91.32;96250.25;29373;208;63005;-60
2023/01/20 01:16:50;;;;;;;0.60;0.60;;;;;;;-1.60;90.96;96248.63;29373;239;63017;-61
2023/01/20 01:17:22;;;;;;;0.60;0.60;;;;;;;-1.61;91.39;96246.19;29371;198;64009;-61
2023/01/20 01:17:55;;;;;;;0.60;0.60;;;;;;;-1.61;91.11;96240.88;29373;271;63009;-61
2023/01/20 01:18:27;;;;;;;0.60;0.60;;;;;;;-1.62;91.51;96249.88;29373;321;63004;-61
2023/01/20 01:18:58;;;;;;;0.60;0.60;;;;;;;-1.63;91.49;96249.06;29373;208;63008;-61
2023/01/20 01:19:30;;;;;;;0.70;0.70;;;;;;;-1.63;91.55;96249.06;29373;239;63008;-61
2023/01/20 01:20:02;;;;;;;0.60;0.60;;;;;;;-1.64;91.52;96250.13;29371;205;64014;-61
2023/01/20 01:20:37;;;;;;;0.62;0.62;;;;;;;-1.63;91.71;96248.28;29373;231;63005;-61
2023/01/20 01:21:14;;;;;;;0.65;0.65;;;;;;;-1.65;91.65;96245.84;29373;212;63027;-61
2023/01/20 01:21:45;;;;;;;0.70;0.70;;;;;;;-1.66;91.59;96246.88;29373;224;63005;-61
2023/01/20 01:22:17;;;;;;;0.60;0.60;;;;;;;-1.67;91.34;96250.56;29373;282;63015;-61
2023/01/20 01:22:49;;;;;;;0.65;0.65;;;;;;;-1.67;91.73;96252.44;29373;202;63011;-61
2023/01/20 01:23:20;;;;;;;0.60;0.60;;;;;;;-1.70;91.49;96251.03;29373;209;63009;-62
2023/01/20 01:23:52;;;;;;;0.70;0.70;;;;;;;-1.70;91.87;96253.69;29373;199;63005;-61
2023/01/20 01:24:23;;;;;;;0.60;0.60;;;;;;;-1.72;91.71;96253.94;29373;222;63023;-61
2023/01/20 01:24:55;;;;;;;0.60;0.60;;;;;;;-1.72;91.46;96255.78;29373;249;63018;-61
2023/01/20 01:25:26;;;;;;;0.60;0.60;;;;;;;-1.73;91.77;96254.16;29371;233;64013;-61
2023/01/20 01:25:58;;;;;;;0.70;0.70;;;;;;;-1.74;91.48;96260.53;29373;199;63004;-61
2023/01/20 01:26:29;;;;;;;0.70;0.70;;;;;;;-1.76;91.73;96255.47;29373;206;63007;-63
2023/01/20 01:27:03;;;;;;;0.60;0.60;;;;;;;-1.75;91.78;96256.28;29373;210;63004;-62
2023/01/20 01:27:35;;;;;;;0.62;0.62;;;;;;;-1.78;91.71;96260.19;29373;227;63026;-61
2023/01/20 01:28:06;;;;;;;0.65;0.65;;;;;;;-1.81;92.19;96257.19;29373;199;63005;-62
2023/01/20 01:28:39;;;;;;;0.60;0.60;;;;;;;-1.83;92.30;96261.91;29373;243;63009;-60
2023/01/20 01:29:10;;;;;;;0.60;0.60;;;;;;;-1.85;92.60;96256.03;29373;204;63005;-62
2023/01/20 01:29:42;;;;;;;0.62;0.62;;;;;;;-1.84;92.42;96260.31;29373;216;63009;-62
2023/01/20 01:30:13;;;;;;;0.70;0.70;;;;;;;-1.82;92.46;96266.19;29373;250;63005;-61
2023/01/20 01:30:47;;;;;;;4.35;4.15;;;;;;;-1.78;92.45;96267.38;29371;286;64013;-60
2023/01/20 01:31:20;;;;;;;0.60;0.60;;;;;;;-1.76;92.66;96257.31;29373;267;63005;-61
2023/01/20 01:31:52;;;;;;;0.60;0.60;;;;;;;-1.75;92.83;96261.59;29373;228;63009;-61
2023/01/20 01:32:23;;;;;;;0.70;0.70;;;;;;;-1.74;92.56;96258.69;29373;222;63004;-61
2023/01/20 01:32:54;;;;;;;0.50;0.50;;;;;;;-1.70;92.51;96265.16;29373;275;63009;-61
2023/01/20 01:33:28;;;;;;;0.70;0.70;;;;;;;-1.68;92.45;96267.56;29373;212;63004;-61
2023/01/20 01:33:59;;;;;;;0.60;0.60;;;;;;;-1.67;92.61;96266.53;29373;215;63009;-60
2023/01/20 01:34:30;;;;;;;0.70;0.70;;;;;;;-1.65;92.20;96266.31;29373;257;63004;-61
2023/01/20 01:35:02;;;;;;;0.60;0.60;;;;;;;-1.64;92.16;96263.41;29373;222;63009;-61
2023/01/20 01:35:34;;;;;;;0.60;0.60;;;;;;;-1.62;92.21;96271.16;29371;259;64009;-61
2023/01/20 01:36:10;;;;;;;0.70;0.70;;;;;;;-1.60;92.15;96271.75;29373;298;63009;-61
2023/01/20 01:36:43;;;;;;;0.60;0.60;;;;;;;-1.59;92.12;96268.03;29373;246;63020;-62
2023/01/20 01:37:15;;;;;;;0.60;0.60;;;;;;;-1.58;91.69;96262.50;29373;208;63009;-62
2023/01/20 01:37:46;;;;;;;0.70;0.70;;;;;;;-1.57;91.76;96269.44;29373;220;63005;-61
2023/01/20 01:38:17;;;;;;;0.60;0.60;;;;;;;-1.55;91.45;96269.22;29373;217;63009;-60
2023/01/20 01:38:48;;;;;;;0.60;0.60;;;;;;;-1.55;91.35;96267.34;29373;253;63005;-61
2023/01/20 01:39:20;;;;;;;0.60;0.60;;;;;;;-1.54;91.27;96274.31;29373;270;63009;-61
2023/01/20 01:39:51;;;;;;;0.60;0.60;;;;;;;-1.53;91.27;96269.78;29371;219;64009;-61
2023/01/20 01:40:25;;;;;;;0.70;0.70;;;;;;;-1.53;90.78;96270.59;29373;224;63009;-61
2023/01/20 01:40:56;;;;;;;0.70;0.70;;;;;;;-1.52;90.93;96272.22;29373;202;63004;-60
2023/01/20 01:41:31;;;;;;;0.70;0.70;;;;;;;-1.51;90.54;96268.53;29373;219;63009;-61
2023/01/20 01:42:07;;;;;;;0.65;0.65;;;;;;;-1.51;90.65;96279.16;29371;218;64008;-61
2023/01/20 01:42:38;;;;;;;0.62;0.62;;;;;;;-1.51;90.50;96273.84;29373;223;63009;-62
2023/01/20 01:43:27;;;;;;;0.68;0.68;;;;;;;-1.49;90.28;96270.94;29373;197;63005;-61
2023/01/20 01:44:16;;;;;;;0.70;0.70;;;;;;;-1.48;90.20;96267.25;29373;204;63009;-61
2023/01/20 01:45:24;;;;;;;4.55;4.35;;;;;;;-1.48;90.32;96273.37;29373;212;63014;-62
2023/01/20 01:45:58;;;;;;;0.70;0.70;;;;;;;-1.46;89.89;96281.13;29373;212;63005;-60
2023/01/20 01:46:30;;;;;;;0.70;0.70;;;;;;;-1.47;90.14;96275.00;29373;241;63009;-62
2023/01/20 01:47:01;;;;;;;0.70;0.70;;;;;;;-1.48;89.91;96270.72;29373;251;63008;-61
2023/01/20 01:47:34;;;;;;;0.70;0.70;;;;;;;-1.47;89.95;96275.00;29371;276;64013;-61
2023/01/20 01:48:09;;;;;;;0.80;0.80;;;;;;;-1.46;90.06;96270.50;29373;241;63004;-60
2023/01/20 01:48:44;;;;;;;0.70;0.70;;;;;;;-1.47;89.87;96274.19;29373;234;63008;-61
2023/01/20 01:49:28;;;;;;;0.60;0.60;;;;;;;-1.46;89.87;96276.63;29373;245;63004;-61
2023/01/20 01:50:01;;;;;;;0.70;0.70;;;;;;;-1.45;89.66;96272.91;29373;255;63009;-61
2023/01/20 01:50:44;;;;;;;0.70;0.70;;;;;;;-1.46;89.98;96276.63;29373;210;63005;-60
2023/01/20 01:51:30;;;;;;;0.70;0.70;;;;;;;-1.45;89.67;96267.59;29373;257;63009;-61
2023/01/20 01:52:07;;;;;;;0.70;0.70;;;;;;;-1.45;89.79;96267.59;29371;216;64009;-61
2023/01/20 01:52:43;;;;;;;0.60;0.60;;;;;;;-1.45;89.58;96267.59;29373;199;63009;-60
2023/01/20 01:53:15;;;;;;;0.62;0.62;;;;;;;-1.44;89.66;96271.88;29373;219;63005;-61
2023/01/20 01:53:52;;;;;;;0.70;0.70;;;;;;;-1.43;89.78;96272.69;29373;202;63009;-61
2023/01/20 01:54:29;;;;;;;0.70;0.70;;;;;;;-1.44;89.53;96266.56;29373;204;63004;-61
2023/01/20 01:55:02;;;;;;;0.70;0.70;;;;;;;-1.43;89.53;96276.16;29373;206;63009;-61
2023/01/20 01:55:38;;;;;;;0.60;0.60;;;;;;;-1.44;89.73;96269.22;29373;238;63004;-61
2023/01/20 01:56:12;;;;;;;0.70;0.70;;;;;;;-1.43;89.74;96270.03;29373;202;63008;-61
2023/01/20 01:56:46;;;;;;;0.70;0.70;;;;;;;-1.44;89.67;96266.56;29373;297;63010;-62
2023/01/20 01:57:17;;;;;;;0.70;0.70;;;;;;;-1.46;89.67;96268.63;29371;212;64006;-60
2023/01/20 01:57:50;;;;;;;0.70;0.70;;;;;;;-1.45;89.70;96278.25;29373;250;63005;-61
2023/01/20 01:58:29;;;;;;;0.60;0.60;;;;;;;-1.44;89.78;96271.88;29373;265;63017;-62
2023/01/20 01:59:02;;;;;;;0.60;0.60;;;;;;;-1.42;89.99;96271.66;29373;319;63005;-61
2023/01/20 01:59:36;;;;;;;0.70;0.70;;;;;;;-1.42;90.09;96272.47;29373;202;63009;-60
2023/01/20 02:00:09;;;;;;;0.70;0.70;;;;;;;-1.41;90.00;96279.41;29373;221;63005;-62
2023/01/20 02:00:41;;;;;;;0.70;0.70;;;;;;;-1.40;90.24;96275.69;29373;291;63009;-61
2023/01/20 02:01:14;;;;;;;0.70;0.70;;;;;;;-1.39;89.85;96279.16;29373;227;63004;-60
2023/01/20 02:01:50;;;;;;;0.60;0.60;;;;;;;-1.40;89.73;96278.34;29373;371;63009;-60
2023/01/20 02:02:22;;;;;;;0.70;0.70;;;;;;;-1.39;90.08;96273.84;29371;202;64009;-61
2023/01/20 02:02:55;;;;;;;0.70;0.70;;;;;;;-1.40;89.89;96275.69;29373;300;63009;-61
2023/01/20 02:03:39;;;;;;;0.70;0.70;;;;;;;-1.40;90.02;96275.69;29371;326;64008;-61
2023/01/20 02:04:15;;;;;;;0.60;0.60;;;;;;;-1.39;89.78;96277.28;29373;202;63008;-62
2023/01/20 02:04:47;;;;;;;0.60;0.60;;;;;;;-1.39;89.96;96277.28;29373;355;63005;-62
2023/01/20 02:05:21;;;;;;;0.68;0.68;;;;;;;-1.39;90.23;96277.28;29373;251;63009;-61
2023/01/20 02:05:58;;;;;;;0.62;0.62;;;;;;;-1.39;90.31;96271.19;29373;210;63005;-61
2023/01/20 02:06:34;;;;;;;0.70;0.70;;;;;;;-1.40;90.43;96274.87;29373;212;63016;-61
2023/01/20 02:07:14;;;;;;;0.62;0.62;;;;;;;-1.42;90.38;96272.47;29373;196;63005;-60
2023/01/20 02:07:47;;;;;;;0.60;0.60;;;;;;;-1.41;90.63;96274.06;29373;218;63009;-60
2023/01/20 02:08:19;;;;;;;0.70;0.70;;;;;;;-1.41;90.67;96274.06;29371;207;64009;-62
2023/01/20 02:08:51;;;;;;;0.60;0.60;;;;;;;-1.41;90.57;96274.06;29373;226;63009;-60
2023/01/20 02:09:25;;;;;;;0.70;0.70;;;;;;;-1.44;90.47;96274.53;29373;218;63004;-61
2023/01/20 02:09:57;;;;;;;0.68;0.68;;;;;;;-1.47;90.61;96280.31;29373;227;63020;-61
2023/01/20 02:10:29;;;;;;;0.60;0.60;;;;;;;-1.49;90.61;96278.94;29373;282;63004;-61
2023/01/20 02:11:00;;;;;;;0.70;0.70;;;;;;;-1.50;91.02;96274.66;29373;221;63008;-61
2023/01/20 02:11:42;;;;;;;0.70;0.70;;;;;;;-1.50;91.25;96286.09;29371;346;64008;-61
2023/01/20 02:12:19;;;;;;;0.60;0.60;;;;;;;-1.50;91.18;96277.31;29373;311;63009;-61
2023/01/20 02:12:54;;;;;;;0.60;0.60;;;;;;;-1.52;91.25;96282.06;29373;220;63005;-61
2023/01/20 02:13:26;;;;;;;0.70;0.70;;;;;;;-1.53;91.07;96286.56;29373;228;63009;-61
2023/01/20 02:13:58;;;;;;;0.70;0.70;;;;;;;-1.54;91.13;96284.13;29373;234;63005;-61
2023/01/20 02:14:37;;;;;;;1.83;1.83;;;;;;;-1.52;91.26;96276.72;29373;208;63009;-61
2023/01/20 02:15:09;;;;;;;0.60;0.60;;;;;;;-1.55;91.76;96280.66;29373;199;63005;-61
2023/01/20 02:16:12;;;;;;;0.70;0.70;;;;;;;-1.58;91.89;96281.13;29373;206;63009;-62
2023/01/20 02:17:38;;;;;;;2.35;2.25;;;;;;;-1.59;92.38;96286.66;29371;227;64009;-61
2023/01/20 02:18:39;;;;;;;0.70;0.70;;;;;;;-1.59;92.36;96281.34;29373;329;63009;-61
2023/01/20 02:19:58;;;;;;;0.70;0.70;;;;;;;-1.61;92.42;96288.75;29373;199;63004;-61
2023/01/20 02:21:07;;;;;;;0.70;0.70;;;;;;;-1.61;92.63;96292.22;29373;206;63009;-61
2023/01/20 02:22:02;;;;;;;1.27;1.27;;;;;;;-1.62;92.60;96287.13;29373;254;63018;-60
2023/01/20 02:23:20;;;;;;;0.70;0.70;;;;;;;-1.65;92.88;96285.75;29371;197;64009;-61
2023/01/20 02:24:28;;;;;;;0.82;0.82;;;;;;;-1.63;92.77;96288.16;29373;263;63009;-60
2023/01/20 02:25:39;;;;;;;0.70;0.70;;;;;;;-1.63;92.70;96281.00;29373;264;63004;-61
2023/01/20 02:27:22;;;;;;;0.70;0.70;;;;;;;-1.64;92.96;96290.03;29371;218;64013;-61
2023/01/20 02:28:54;;;;;;;0.70;0.70;;;;;;;-1.64;92.85;96290.03;29373;192;63005;-62
2023/01/20 02:30:06;;;;;;;0.70;0.70;;;;;;;-1.63;92.55;96291.63;29373;209;63009;-61
2023/01/20 02:31:07;;;;;;;0.70;0.70;;;;;;;-1.63;92.82;96290.84;29457;208;125013;-60
2023/01/20 02:32:26;;;;;;;0.70;0.70;;;;;;;-1.64;92.81;96295.34;29416;211;64009;-61
2023/01/20 02:33:12;;;;;;;0.70;0.70;;;;;;;-1.62;92.49;96298.59;29395;208;63010;-60
2023/01/20 02:34:11;;;;;;;0.70;0.70;;;;;;;-1.62;92.31;96293.25;29373;232;63008;-61
2023/01/20 02:35:01;;;;;;;0.70;0.70;;;;;;;-1.61;92.51;96300.19;29373;197;63005;-61
2023/01/20 02:35:49;;;;;;;0.70;0.70;;;;;;;-1.62;92.25;96290.59;29373;227;63009;-61
2023/01/20 02:36:41;;;;;;;0.70;0.70;;;;;;;-1.62;92.59;96303.91;29373;254;63005;-61
2023/01/20 02:37:24;;;;;;;0.70;0.70;;;;;;;-1.61;92.48;96297.53;29393;263;64013;-61
2023/01/20 02:38:23;;;;;;;0.70;0.70;;;;;;;-1.60;92.56;96296.50;29395;239;63005;-63
2023/01/20 02:39:20;;;;;;;0.70;0.70;;;;;;;-1.60;93.24;96301.81;29371;317;64013;-60
2023/01/20 02:40:17;;;;;;;0.70;0.70;;;;;;;-1.62;93.92;96298.59;29373;243;63004;-61
2023/01/20 02:41:05;;;;;;;0.70;0.70;;;;;;;-1.62;93.99;96298.59;29373;326;63009;-62
2023/01/20 02:41:53;;;;;;;0.70;0.70;;;;;;;-1.63;93.83;96290.84;29373;239;63004;-61
2023/01/20 02:42:42;;;;;;;0.70;0.70;;;;;;;-1.63;93.63;96301.47;29373;204;63009;-61
2023/01/20 02:43:37;;;;;;;0.62;0.62;;;;;;;-1.64;92.82;96305.16;29373;212;63005;-61
2023/01/20 02:44:37;;;;;;;0.70;0.70;;;;;;;-1.69;92.30;96303.19;29371;228;64013;-61
2023/01/20 02:45:23;;;;;;;3.15;2.78;;;;;;;-1.69;92.39;96306.66;29373;300;63005;-61
2023/01/20 02:46:10;;;;;;;0.80;0.80;;;;;;;-1.68;92.53;96304.81;29373;230;63017;-61
2023/01/20 02:47:00;;;;;;;0.70;0.70;;;;;;;-1.69;92.86;96305.84;29373;304;63004;-61
2023/01/20 02:48:00;;;;;;;0.80;0.80;;;;;;;-1.70;92.95;96307.69;29371;211;64013;-61
2023/01/20 02:48:43;;;;;;;0.68;0.68;;;;;;;-1.71;93.00;96311.41;29371;202;64009;-62
2023/01/20 02:49:45;;;;;;;0.70;0.70;;;;;;;-1.72;92.84;96304.47;29373;204;63008;-60
2023/01/20 02:50:39;;;;;;;0.70;0.70;;;;;;;-1.72;93.20;96303.66;29395;198;63005;-61
2023/01/20 02:51:17;;;;;;;0.60;0.60;;;;;;;-1.71;93.36;96313.25;29394;218;64014;-61
2023/01/20 02:52:16;;;;;;;0.70;0.70;;;;;;;-1.72;93.62;96306.31;29373;342;63005;-61
2023/01/20 02:52:55;;;;;;;0.70;0.70;;;;;;;-1.72;93.44;96308.97;29373;330;63009;-61
2023/01/20 02:53:36;;;;;;;0.70;0.70;;;;;;;-1.72;93.79;96311.63;29373;222;63014;-61
2023/01/20 02:54:12;;;;;;;0.70;0.70;;;;;;;-1.73;93.92;96308.16;29395;285;63009;-61